createdAt,value
2023-05-08T00:01:53.795Z,9.43
2023-05-08T00:04:20.781Z,9.31
2023-05-08T00:06:47.700Z,9.31
2023-05-08T00:09:14.110Z,9.15
2023-05-08T00:11:40.530Z,9.16
2023-05-08T00:14:06.931Z,9.14
2023-05-08T00:16:33.440Z,9.08
2023-05-08T00:19:00.604Z,9.13
2023-05-08T00:21:27.027Z,9.15
2023-05-08T00:23:53.400Z,9.16
2023-05-08T00:26:21.002Z,9.03
2023-05-08T00:28:47.785Z,8.92
2023-05-08T00:31:14.766Z,9.16
2023-05-08T00:33:41.186Z,8.86
2023-05-08T00:36:07.737Z,8.93
2023-05-08T00:38:35.090Z,8.97
2023-05-08T00:41:01.747Z,8.66
2023-05-08T00:43:29.059Z,8.71
2023-05-08T00:45:56.970Z,8.80
2023-05-08T00:48:25.010Z,8.57
2023-05-08T00:50:52.988Z,8.69
2023-05-08T00:53:19.916Z,8.76
2023-05-08T00:55:46.384Z,8.64
2023-05-08T00:58:13.630Z,8.63
2023-05-08T01:00:42.098Z,8.50
2023-05-08T01:03:09.518Z,8.64
2023-05-08T01:05:36.481Z,8.68
2023-05-08T01:08:02.903Z,8.76
2023-05-08T01:10:39.363Z,8.59
2023-05-08T01:13:20.303Z,8.55
2023-05-08T01:15:54.097Z,8.48
2023-05-08T01:18:32.376Z,8.65
2023-05-08T01:21:23.750Z,8.36
2023-05-08T01:24:21.786Z,8.59
2023-05-08T01:27:06.782Z,8.36
2023-05-08T01:29:41.771Z,8.15
2023-05-08T01:32:23.266Z,8.41
2023-05-08T01:35:03.780Z,8.41
2023-05-08T01:37:45.931Z,8.44
2023-05-08T01:40:24.945Z,8.46
2023-05-08T01:43:16.075Z,8.44
2023-05-08T01:45:51.413Z,8.50
2023-05-08T01:48:24.425Z,8.61
2023-05-08T01:50:59.142Z,8.48
2023-05-08T01:53:42.840Z,8.41
2023-05-08T01:56:19.354Z,8.44
2023-05-08T01:58:47.877Z,8.53
2023-05-08T02:01:15.520Z,8.20
2023-05-08T02:03:44.542Z,8.12
2023-05-08T02:06:16.811Z,8.14
2023-05-08T02:08:45.574Z,8.23
2023-05-08T02:11:13.567Z,8.00
2023-05-08T02:13:41.319Z,8.06
2023-05-08T02:16:11.086Z,8.33
2023-05-08T02:18:40.033Z,7.85
2023-05-08T02:21:07.243Z,7.98
2023-05-08T02:23:34.752Z,8.03
2023-05-08T02:26:03.681Z,8.01
2023-05-08T02:28:31.046Z,8.13
2023-05-08T02:30:58.761Z,8.07
2023-05-08T02:33:27.503Z,7.94
2023-05-08T02:35:56.666Z,7.85
2023-05-08T02:38:24.570Z,7.95
2023-05-08T02:40:55.486Z,7.85
2023-05-08T02:43:22.020Z,7.85
2023-05-08T02:45:58.188Z,7.92
2023-05-08T02:48:38.060Z,7.66
2023-05-08T02:51:29.106Z,7.88
2023-05-08T02:54:14.419Z,7.83
2023-05-08T02:56:48.977Z,7.54
2023-05-08T02:59:22.206Z,7.98
2023-05-08T03:02:12.262Z,7.73
2023-05-08T03:04:49.681Z,7.53
2023-05-08T03:07:16.450Z,7.46
2023-05-08T03:09:50.695Z,7.61
2023-05-08T03:12:24.642Z,7.80
2023-05-08T03:15:13.887Z,7.62
2023-05-08T03:17:43.304Z,7.70
2023-05-08T03:20:14.537Z,7.38
2023-05-08T03:22:43.548Z,7.44
2023-05-08T03:25:13.998Z,7.43
2023-05-08T03:27:41.130Z,7.30
2023-05-08T03:30:09.695Z,7.49
2023-05-08T03:32:36.898Z,7.36
2023-05-08T03:35:04.416Z,7.34
2023-05-08T03:37:30.983Z,7.62
2023-05-08T03:39:57.801Z,7.58
2023-05-08T03:42:25.599Z,7.55
2023-05-08T03:44:53.218Z,7.44
2023-05-08T03:47:21.853Z,7.65
2023-05-08T03:49:49.772Z,7.26
2023-05-08T03:52:16.609Z,7.32
2023-05-08T03:54:43.182Z,7.31
2023-05-08T03:57:10.773Z,7.39
2023-05-08T04:00:03.504Z,7.52
2023-05-08T04:02:42.445Z,7.55
2023-05-08T04:05:21.767Z,7.63
2023-05-08T04:07:53.817Z,7.28
2023-05-08T04:10:31.016Z,7.47
2023-05-08T04:13:06.558Z,7.42
2023-05-08T04:15:38.198Z,7.26
2023-05-08T04:18:14.682Z,7.37
2023-05-08T04:20:41.953Z,7.52
2023-05-08T04:23:09.709Z,7.60
2023-05-08T04:25:38.844Z,7.44
2023-05-08T04:28:05.529Z,7.50
2023-05-08T04:30:32.123Z,7.39
2023-05-08T04:32:59.438Z,7.57
2023-05-08T04:35:26.171Z,7.35
2023-05-08T04:37:52.743Z,7.36
2023-05-08T04:40:19.156Z,7.47
2023-05-08T04:42:47.436Z,7.51
2023-05-08T04:45:14.468Z,7.56
2023-05-08T04:47:41.012Z,7.41
2023-05-08T04:50:07.643Z,7.56
2023-05-08T04:52:34.023Z,7.50
2023-05-08T04:55:00.455Z,7.56
2023-05-08T04:57:26.908Z,7.81
2023-05-08T04:59:53.308Z,7.68
2023-05-08T05:02:19.766Z,7.64
2023-05-08T05:04:46.257Z,7.63
2023-05-08T05:07:12.664Z,7.54
2023-05-08T05:09:39.369Z,7.74
2023-05-08T05:12:06.921Z,7.89
2023-05-08T05:14:33.307Z,7.80
2023-05-08T05:16:59.687Z,7.96
2023-05-08T05:19:27.115Z,7.92
2023-05-08T05:21:53.587Z,7.90
2023-05-08T05:24:19.957Z,7.95
2023-05-08T05:26:46.349Z,8.13
2023-05-08T05:29:13.148Z,7.93
2023-05-08T05:31:39.604Z,8.11
2023-05-08T05:34:06.091Z,8.04
2023-05-08T05:36:32.576Z,8.24
2023-05-08T05:38:58.947Z,8.22
2023-05-08T05:41:25.837Z,8.43
2023-05-08T05:43:52.261Z,8.45
2023-05-08T05:46:18.763Z,8.31
2023-05-08T05:48:45.167Z,8.50
2023-05-08T05:51:12.006Z,8.58
2023-05-08T05:53:38.455Z,8.63
2023-05-08T05:56:05.199Z,8.77
2023-05-08T05:58:31.581Z,8.75
2023-05-08T06:01:01.028Z,8.98
2023-05-08T06:03:27.989Z,8.92
2023-05-08T06:05:55.781Z,8.93
2023-05-08T06:08:23.007Z,8.87
2023-05-08T06:10:49.475Z,8.96
2023-05-08T06:13:16.167Z,9.07
2023-05-08T06:15:42.570Z,9.22
2023-05-08T06:18:09.009Z,9.15
2023-05-08T06:20:37.470Z,9.30
2023-05-08T06:23:03.936Z,9.42
2023-05-08T06:25:31.095Z,9.36
2023-05-08T06:27:57.484Z,9.40
2023-05-08T06:30:23.837Z,9.54
2023-05-08T06:32:50.288Z,9.53
2023-05-08T06:35:18.523Z,9.66
2023-05-08T06:37:45.888Z,9.71
2023-05-08T06:40:13.615Z,9.77
2023-05-08T06:42:40.648Z,9.88
2023-05-08T06:45:08.935Z,10.00
2023-05-08T06:47:35.498Z,10.07
2023-05-08T06:50:01.939Z,9.94
2023-05-08T06:52:28.317Z,10.12
2023-05-08T06:54:54.718Z,10.13
2023-05-08T06:57:21.109Z,10.04
2023-05-08T06:59:47.498Z,10.32
2023-05-08T07:02:16.399Z,10.34
2023-05-08T07:04:44.362Z,10.48
2023-05-08T07:07:11.548Z,10.39
2023-05-08T07:09:37.974Z,10.45
2023-05-08T07:12:04.559Z,10.42
2023-05-08T07:14:30.910Z,10.61
2023-05-08T07:16:58.332Z,10.54
2023-05-08T07:19:25.038Z,10.72
2023-05-08T07:21:51.478Z,10.71
2023-05-08T07:24:17.925Z,10.90
2023-05-08T07:26:44.422Z,10.82
2023-05-08T07:29:10.828Z,10.83
2023-05-08T07:31:39.428Z,10.90
2023-05-08T07:34:07.203Z,11.05
2023-05-08T07:36:33.786Z,11.00
2023-05-08T07:39:00.145Z,11.10
2023-05-08T07:41:26.592Z,11.29
2023-05-08T07:43:53.333Z,11.28
2023-05-08T07:46:19.806Z,11.38
2023-05-08T07:48:46.383Z,11.47
2023-05-08T07:51:13.300Z,11.61
2023-05-08T07:53:39.647Z,11.54
2023-05-08T07:56:06.524Z,11.58
2023-05-08T07:58:32.880Z,11.53
2023-05-08T08:00:59.239Z,11.62
2023-05-08T08:03:25.721Z,11.71
2023-05-08T08:05:52.175Z,11.82
2023-05-08T08:08:18.598Z,11.72
2023-05-08T08:10:44.977Z,11.89
2023-05-08T08:13:11.393Z,11.96
2023-05-08T08:15:37.797Z,12.04
2023-05-08T08:18:05.250Z,11.99
2023-05-08T08:20:31.655Z,12.06
2023-05-08T08:22:58.039Z,12.10
2023-05-08T08:25:24.527Z,12.35
2023-05-08T08:27:50.943Z,12.42
2023-05-08T08:30:18.574Z,12.33
2023-05-08T08:32:45.936Z,12.50
2023-05-08T08:35:13.285Z,12.49
2023-05-08T08:37:40.158Z,12.63
2023-05-08T08:40:07.418Z,12.77
2023-05-08T08:42:34.246Z,12.94
2023-05-08T08:45:01.582Z,12.95
2023-05-08T08:47:29.738Z,13.06
2023-05-08T08:49:58.785Z,13.05
2023-05-08T08:52:43.760Z,13.13
2023-05-08T08:55:15.231Z,13.14
2023-05-08T08:57:55.097Z,13.06
2023-05-08T09:00:23.520Z,13.31
2023-05-08T09:02:50.471Z,13.35
2023-05-08T09:05:18.248Z,13.61
2023-05-08T09:07:44.783Z,13.63
2023-05-08T09:10:15.866Z,13.75
2023-05-08T09:12:42.581Z,13.85
2023-05-08T09:15:09.190Z,13.92
2023-05-08T09:17:35.779Z,14.02
2023-05-08T09:20:03.353Z,14.25
2023-05-08T09:22:30.364Z,14.19
2023-05-08T09:25:01.086Z,14.24
2023-05-08T09:27:29.443Z,14.30
2023-05-08T09:30:01.970Z,14.46
2023-05-08T09:32:32.965Z,14.58
2023-05-08T09:35:00.074Z,14.57
2023-05-08T09:37:27.607Z,14.57
2023-05-08T09:39:54.812Z,14.56
2023-05-08T09:42:21.453Z,14.66
2023-05-08T09:44:53.147Z,14.83
2023-05-08T09:47:25.275Z,14.73
2023-05-08T09:49:58.795Z,14.62
2023-05-08T09:52:25.417Z,14.74
2023-05-08T09:55:02.213Z,14.70
2023-05-08T09:57:30.364Z,14.98
2023-05-08T10:00:13.350Z,15.14
2023-05-08T10:02:41.966Z,15.05
2023-05-08T10:05:27.826Z,15.05
2023-05-08T10:07:54.425Z,14.95
2023-05-08T10:10:29.149Z,15.12
2023-05-08T10:12:56.927Z,15.32
2023-05-08T10:15:25.997Z,15.38
2023-05-08T10:18:02.422Z,15.69
2023-05-08T10:20:30.972Z,15.47
2023-05-08T10:22:58.485Z,15.62
2023-05-08T10:25:25.956Z,15.56
2023-05-08T10:28:02.277Z,15.66
2023-05-08T10:30:31.042Z,15.85
2023-05-08T10:32:59.269Z,15.77
2023-05-08T10:35:26.203Z,15.89
2023-05-08T10:37:54.400Z,15.97
2023-05-08T10:40:22.417Z,16.02
2023-05-08T10:42:49.570Z,16.00
2023-05-08T10:45:16.297Z,15.99
2023-05-08T10:47:59.381Z,16.12
2023-05-08T10:50:56.552Z,16.22
2023-05-08T10:53:34.487Z,16.34
2023-05-08T10:56:01.164Z,16.57
2023-05-08T10:58:35.745Z,16.37
2023-05-08T11:01:07.283Z,16.68
2023-05-08T11:03:44.084Z,16.57
2023-05-08T11:06:11.585Z,16.55
2023-05-08T11:08:47.759Z,17.00
2023-05-08T11:11:21.832Z,16.85
2023-05-08T11:13:52.409Z,16.88
2023-05-08T11:16:38.773Z,16.78
2023-05-08T11:19:19.006Z,16.94
2023-05-08T11:22:10.508Z,17.18
2023-05-08T11:24:38.105Z,16.70
2023-05-08T11:27:04.679Z,17.24
2023-05-08T11:29:31.112Z,17.25
2023-05-08T11:31:57.554Z,17.32
2023-05-08T11:34:42.577Z,17.55
2023-05-08T11:37:17.945Z,17.58
2023-05-08T11:39:44.471Z,17.70
2023-05-08T11:42:29.203Z,17.84
2023-05-08T11:45:14.347Z,17.41
2023-05-08T11:47:42.713Z,17.73
2023-05-08T11:50:11.306Z,17.93
2023-05-08T11:52:39.653Z,17.90
2023-05-08T11:55:08.555Z,17.88
2023-05-08T11:57:35.446Z,17.88
2023-05-08T12:00:06.741Z,18.02
2023-05-08T12:02:40.646Z,18.06
2023-05-08T12:05:08.445Z,18.19
2023-05-08T12:07:47.702Z,18.11
2023-05-08T12:10:15.671Z,18.20
2023-05-08T12:12:44.184Z,18.35
2023-05-08T12:15:13.798Z,18.51
2023-05-08T12:17:40.920Z,18.27
2023-05-08T12:20:15.228Z,18.21
2023-05-08T12:22:42.493Z,18.71
2023-05-08T12:25:11.759Z,18.48
2023-05-08T12:27:38.866Z,18.95
2023-05-08T12:30:09.578Z,19.18
2023-05-08T12:32:40.941Z,19.09
2023-05-08T12:35:12.214Z,19.35
2023-05-08T12:37:38.926Z,19.18
2023-05-08T12:40:06.288Z,19.24
2023-05-08T12:42:42.934Z,19.43
2023-05-08T12:45:16.310Z,19.49
2023-05-08T12:47:45.897Z,19.30
2023-05-08T12:50:15.066Z,19.49
2023-05-08T12:52:41.682Z,19.31
2023-05-08T12:55:31.332Z,19.04
2023-05-08T12:58:06.325Z,19.31
2023-05-08T13:00:40.263Z,20.16
2023-05-08T13:03:08.365Z,19.90
2023-05-08T13:05:42.020Z,19.91
2023-05-08T13:08:10.861Z,20.47
2023-05-08T13:10:47.124Z,21.30
2023-05-08T13:13:15.966Z,21.32
2023-05-08T13:15:42.888Z,21.22
2023-05-08T13:18:09.545Z,21.86
2023-05-08T13:20:36.594Z,23.43
2023-05-08T13:23:03.456Z,24.02
2023-05-08T13:25:30.757Z,23.57
2023-05-08T13:28:00.790Z,23.41
2023-05-08T13:30:27.521Z,24.87
2023-05-08T13:32:54.117Z,24.89
2023-05-08T13:35:21.013Z,26.20
2023-05-08T13:37:48.120Z,26.77
2023-05-08T13:40:15.700Z,28.49
2023-05-08T13:42:42.077Z,29.31
2023-05-08T13:45:10.841Z,32.46
2023-05-08T13:47:37.366Z,28.42
2023-05-08T13:50:03.969Z,24.22
2023-05-08T13:52:30.480Z,28.93
2023-05-08T13:54:57.985Z,31.28
2023-05-08T13:57:24.838Z,34.09
2023-05-08T13:59:51.228Z,35.88
2023-05-08T14:02:17.869Z,36.80
2023-05-08T14:04:44.448Z,36.89
2023-05-08T14:07:10.919Z,36.20
2023-05-08T14:09:37.314Z,35.54
2023-05-08T14:12:03.765Z,37.18
2023-05-08T14:14:31.679Z,37.66
2023-05-08T14:16:58.845Z,34.71
2023-05-08T14:19:25.231Z,35.48
2023-05-08T14:21:52.067Z,35.55
2023-05-08T14:24:18.594Z,34.22
2023-05-08T14:26:45.135Z,33.41
2023-05-08T14:29:11.693Z,36.58
2023-05-08T14:31:38.117Z,34.14
2023-05-08T14:34:04.866Z,35.68
2023-05-08T14:36:31.371Z,35.98
2023-05-08T14:38:57.787Z,36.72
2023-05-08T14:41:28.778Z,37.33
2023-05-08T14:43:55.328Z,34.74
2023-05-08T14:46:21.820Z,36.74
